Icarus — D5AX3 — position and weather

sailwx.info

Track history (hours):
 
Tides and Currents Weather Stations Pressure Air Temp Water Temp Dewpoint Dewpoint Depression Visibility Wind Speed Wind Dir Waves Ship Positions

Icarus

Last reported at 2014-Aug-28 00:33 UTC. Time now 2014-Aug-28 01:17 UTC.
Position N 36°52' E 012°27'.

Length 225 m; draft 12.6 m.

Type: Cargo ship. MMSI: 636015464.

Date/timePositionNaut miles runAvg speedWind from/ knotsBaromVisibWave heightAir tempDewpointWater temp
2014-Aug-28 00:33N 36°52' E 012°27'1111.4
2014-Aug-27 23:33N 36°56' E 012°14'1311.5
2014-Aug-27 22:26N 37°00' E 011°59'1111.7
2014-Aug-27 21:28N 37°06' E 011°47'1111.6
2014-Aug-27 20:33N 37°11' E 011°35'1111.3
2014-Aug-27 19:33N 37°17' E 011°23'1111.2
2014-Aug-27 18:33N 37°22' E 011°10'1111.1
2014-Aug-27 17:33N 37°26' E 010°57'1110.9
2014-Aug-27 16:33N 37°29' E 010°44'1110.9
2014-Aug-27 15:33N 37°31' E 010°30'1111.0
2014-Aug-27 14:33N 37°34' E 010°17'1111.2
2014-Aug-27 13:33N 37°34' E 010°03'1111.0
2014-Aug-27 12:33N 37°32' E 009°49'1111.1
2014-Aug-27 11:33N 37°29' E 009°36'1111.2
2014-Aug-27 10:33N 37°25' E 009°22'1111.2
2014-Aug-27 09:33N 37°24' E 009°08'1211.5
2014-Aug-27 08:32N 37°21' E 008°54'1111.6
2014-Aug-27 07:33N 37°18' E 008°40'1111.4
2014-Aug-27 06:33N 37°16' E 008°26'1111.0
2014-Aug-27 05:33N 37°16' E 008°12'1110.8
2014-Aug-27 04:33N 37°16' E 007°59'1110.8
2014-Aug-27 03:33N 37°17' E 007°45'1111.0
2014-Aug-27 02:33N 37°17' E 007°31'1111.2
2014-Aug-27 01:32N 37°17' E 007°17'1312.0
2014-Aug-27 00:29N 37°17' E 007°01'1010.5
2014-Aug-26 23:33N 37°16' E 006°49'1111.0
2014-Aug-26 22:32N 37°17' E 006°35'1111.0
2014-Aug-26 21:33N 37°16' E 006°21'1611.0
2014-Aug-26 20:06N 37°16' E 006°01'610.9
2014-Aug-26 19:33N 37°15' E 005°54'1110.9
2014-Aug-26 18:33N 37°14' E 005°40'1111.0
2014-Aug-26 17:33N 37°14' E 005°26'1111.1
2014-Aug-26 16:33N 37°13' E 005°12'1111.2
2014-Aug-26 15:32N 37°13' E 004°58'1111.3
2014-Aug-26 14:33N 37°12' E 004°44'1111.4
2014-Aug-26 13:33N 37°12' E 004°29'1111.5
2014-Aug-26 12:33N 37°10' E 004°15'1211.5
2014-Aug-26 11:33N 37°10' E 004°01'1211.5
2014-Aug-26 10:33N 37°09' E 003°46'1111.1
2014-Aug-26 09:31N 37°06' E 003°32'1211.5
2014-Aug-26 08:26N 37°05' E 003°17'1112.1
2014-Aug-26 07:32N 37°03' E 003°03'1511.8
2014-Aug-26 06:16N 36°60' E 002°45'1212.2
2014-Aug-26 05:17N 36°58' E 002°30'911.8
2014-Aug-26 04:33N 36°56' E 002°19'1511.6
2014-Aug-26 03:17N 36°53' E 002°01'911.6
2014-Aug-26 02:32N 36°52' E 001°51'1211.7
2014-Aug-26 01:29N 36°50' E 001°35'1111.3
2014-Aug-26 00:27N 36°48' E 001°21'1111.5
2014-Aug-25 23:32N 36°46' E 001°08'1111.6
2014-Aug-25 22:33N 36°44' E 000°54'1211.7
2014-Aug-25 21:32N 36°41' E 000°40'1111.3
2014-Aug-25 20:33N 36°40' E 000°26'1111.0
2014-Aug-25 19:33N 36°38' E 000°13'1110.7
2014-Aug-25 18:33N 36°36' W 000°00'1110.6
2014-Aug-25 17:33N 36°34' W 000°13'1110.5
2014-Aug-25 16:33N 36°32' W 000°26'1110.7
2014-Aug-25 15:33N 36°30' W 000°39'1210.7
2014-Aug-25 14:28N 36°28' W 000°54'1010.9
2014-Aug-25 13:32N 36°26' W 001°06'1110.8
2014-Aug-25 12:31N 36°24' W 001°19'1110.5
2014-Aug-25 11:26N 36°22' W 001°33'258 7.0
2014-Aug-23 22:19N 35°32' W 006°46'810.6
2014-Aug-23 21:33N 35°26' W 006°54'  
Track history (hours):
 
Tides and Currents Weather Stations Pressure Air Temp Water Temp Dewpoint Dewpoint Depression Visibility Wind Speed Wind Dir Waves Ship Positions

Icarus

Last reported at 2014-Aug-28 00:33 UTC. Time now 2014-Aug-28 01:17 UTC.
Position N 36°52' E 012°27'.

Length 225 m; draft 12.6 m.

Type: Cargo ship. MMSI: 636015464.

Date/timePositionNaut miles runAvg speedWind from/ knotsBaromVisibWave heightAir tempDewpointWater temp
2014-Aug-28 00:33N 36°52' E 012°27'1111.4
2014-Aug-27 23:33N 36°56' E 012°14'1311.5
2014-Aug-27 22:26N 37°00' E 011°59'1111.7
2014-Aug-27 21:28N 37°06' E 011°47'1111.6
2014-Aug-27 20:33N 37°11' E 011°35'1111.3
2014-Aug-27 19:33N 37°17' E 011°23'1111.2
2014-Aug-27 18:33N 37°22' E 011°10'1111.1
2014-Aug-27 17:33N 37°26' E 010°57'1110.9
2014-Aug-27 16:33N 37°29' E 010°44'1110.9
2014-Aug-27 15:33N 37°31' E 010°30'1111.0
2014-Aug-27 14:33N 37°34' E 010°17'1111.2
2014-Aug-27 13:33N 37°34' E 010°03'1111.0
2014-Aug-27 12:33N 37°32' E 009°49'1111.1
2014-Aug-27 11:33N 37°29' E 009°36'1111.2
2014-Aug-27 10:33N 37°25' E 009°22'1111.2
2014-Aug-27 09:33N 37°24' E 009°08'1211.5
2014-Aug-27 08:32N 37°21' E 008°54'1111.6
2014-Aug-27 07:33N 37°18' E 008°40'1111.4
2014-Aug-27 06:33N 37°16' E 008°26'1111.0
2014-Aug-27 05:33N 37°16' E 008°12'1110.8
2014-Aug-27 04:33N 37°16' E 007°59'1110.8
2014-Aug-27 03:33N 37°17' E 007°45'1111.0
2014-Aug-27 02:33N 37°17' E 007°31'1111.2
2014-Aug-27 01:32N 37°17' E 007°17'1312.0
2014-Aug-27 00:29N 37°17' E 007°01'1010.5
2014-Aug-26 23:33N 37°16' E 006°49'1111.0
2014-Aug-26 22:32N 37°17' E 006°35'1111.0
2014-Aug-26 21:33N 37°16' E 006°21'1611.0
2014-Aug-26 20:06N 37°16' E 006°01'610.9
2014-Aug-26 19:33N 37°15' E 005°54'1110.9
2014-Aug-26 18:33N 37°14' E 005°40'1111.0
2014-Aug-26 17:33N 37°14' E 005°26'1111.1
2014-Aug-26 16:33N 37°13' E 005°12'1111.2
2014-Aug-26 15:32N 37°13' E 004°58'1111.3
2014-Aug-26 14:33N 37°12' E 004°44'1111.4
2014-Aug-26 13:33N 37°12' E 004°29'1111.5
2014-Aug-26 12:33N 37°10' E 004°15'1211.5
2014-Aug-26 11:33N 37°10' E 004°01'1211.5
2014-Aug-26 10:33N 37°09' E 003°46'1111.1
2014-Aug-26 09:31N 37°06' E 003°32'1211.5
2014-Aug-26 08:26N 37°05' E 003°17'1112.1
2014-Aug-26 07:32N 37°03' E 003°03'1511.8
2014-Aug-26 06:16N 36°60' E 002°45'1212.2
2014-Aug-26 05:17N 36°58' E 002°30'911.8
2014-Aug-26 04:33N 36°56' E 002°19'1511.6
2014-Aug-26 03:17N 36°53' E 002°01'911.6
2014-Aug-26 02:32N 36°52' E 001°51'1211.7
2014-Aug-26 01:29N 36°50' E 001°35'1111.3
2014-Aug-26 00:27N 36°48' E 001°21'1111.5
2014-Aug-25 23:32N 36°46' E 001°08'1111.6
2014-Aug-25 22:33N 36°44' E 000°54'1211.7
2014-Aug-25 21:32N 36°41' E 000°40'1111.3
2014-Aug-25 20:33N 36°40' E 000°26'1111.0
2014-Aug-25 19:33N 36°38' E 000°13'1110.7
2014-Aug-25 18:33N 36°36' W 000°00'1110.6
2014-Aug-25 17:33N 36°34' W 000°13'1110.5
2014-Aug-25 16:33N 36°32' W 000°26'1110.7
2014-Aug-25 15:33N 36°30' W 000°39'1210.7
2014-Aug-25 14:28N 36°28' W 000°54'1010.9
2014-Aug-25 13:32N 36°26' W 001°06'1110.8
2014-Aug-25 12:31N 36°24' W 001°19'1110.5
2014-Aug-25 11:26N 36°22' W 001°33'258 7.0
2014-Aug-23 22:19N 35°32' W 006°46'810.6
2014-Aug-23 21:33N 35°26' W 006°54'  

Dump ship's entire track history